createdAt,value
2019-04-04T00:00:53.453Z,13.86
2019-04-04T00:03:21.090Z,14.00
2019-04-04T00:05:47.974Z,13.58
2019-04-04T00:08:14.277Z,13.83
2019-04-04T00:10:40.600Z,13.70
2019-04-04T00:13:06.907Z,13.90
2019-04-04T00:15:33.074Z,13.74
2019-04-04T00:17:59.437Z,13.58
2019-04-04T00:20:25.747Z,13.53
2019-04-04T00:22:51.910Z,13.16
2019-04-04T00:25:18.242Z,13.70
2019-04-04T00:27:44.642Z,13.05
2019-04-04T00:30:13.237Z,12.74
2019-04-04T00:32:39.557Z,12.52
2019-04-04T00:35:05.744Z,12.54
2019-04-04T00:37:32.041Z,12.56
2019-04-04T00:39:58.242Z,12.58
2019-04-04T00:42:24.446Z,12.94
2019-04-04T00:44:50.757Z,12.55
2019-04-04T00:47:16.951Z,13.25
2019-04-04T00:49:43.159Z,13.17
2019-04-04T00:52:10.325Z,13.30
2019-04-04T00:54:37.233Z,13.08
2019-04-04T00:57:03.420Z,13.46
2019-04-04T00:59:29.730Z,12.97
2019-04-04T01:01:57.083Z,12.73
2019-04-04T01:04:23.869Z,12.80
2019-04-04T01:06:50.171Z,13.31
2019-04-04T01:09:16.463Z,14.11
2019-04-04T01:11:42.746Z,14.07
2019-04-04T01:14:09.024Z,14.02
2019-04-04T01:16:35.342Z,13.96
2019-04-04T01:19:01.625Z,13.32
2019-04-04T01:21:27.997Z,14.10
2019-04-04T01:23:54.210Z,13.69
2019-04-04T01:26:20.506Z,13.96
2019-04-04T01:28:46.817Z,13.68
2019-04-04T01:31:14.889Z,13.36
2019-04-04T01:33:41.196Z,13.59
2019-04-04T01:36:07.460Z,13.78
2019-04-04T01:38:33.679Z,14.07
2019-04-04T01:40:59.941Z,13.97
2019-04-04T01:43:26.104Z,14.61
2019-04-04T01:45:52.299Z,14.22
2019-04-04T01:48:19.267Z,14.54
2019-04-04T01:50:45.625Z,14.40
2019-04-04T01:53:12.052Z,13.97
2019-04-04T01:55:38.244Z,14.41
2019-04-04T01:58:04.404Z,14.92
2019-04-04T02:00:30.725Z,14.65
2019-04-04T02:02:56.920Z,14.56
2019-04-04T02:05:23.070Z,14.51
2019-04-04T02:07:49.283Z,14.44
2019-04-04T02:10:15.620Z,14.63
2019-04-04T02:12:41.790Z,14.81
2019-04-04T02:15:08.320Z,14.67
2019-04-04T02:17:34.507Z,14.78
2019-04-04T02:20:09.019Z,14.62
2019-04-04T02:22:35.389Z,14.36
2019-04-04T02:25:03.157Z,14.14
2019-04-04T02:27:29.621Z,14.13
2019-04-04T02:29:55.857Z,14.05
2019-04-04T02:32:26.703Z,13.71
2019-04-04T02:34:51.851Z,13.43
2019-04-04T02:37:20.629Z,13.31
2019-04-04T02:39:46.118Z,13.14
2019-04-04T02:42:12.284Z,13.15
2019-04-04T02:44:38.510Z,13.40
2019-04-04T02:47:04.782Z,12.92
2019-04-04T02:49:30.938Z,13.11
2019-04-04T02:51:57.159Z,12.94
2019-04-04T02:54:24.637Z,13.03
2019-04-04T02:56:51.398Z,12.90
2019-04-04T02:59:21.558Z,12.75
2019-04-04T03:01:45.771Z,12.11
2019-04-04T03:04:13.908Z,12.25
2019-04-04T03:06:40.076Z,12.51
2019-04-04T03:09:09.094Z,12.94
2019-04-04T03:11:34.296Z,13.00
2019-04-04T03:14:03.283Z,12.82
2019-04-04T03:16:28.570Z,12.91
2019-04-04T03:18:54.787Z,12.44
2019-04-04T03:21:23.415Z,12.59
2019-04-04T03:23:49.086Z,12.45
2019-04-04T03:26:19.038Z,12.56
2019-04-04T03:28:43.601Z,12.52
2019-04-04T03:31:09.749Z,11.90
2019-04-04T03:33:35.926Z,12.20
2019-04-04T03:36:02.130Z,12.22
2019-04-04T03:38:28.291Z,12.79
2019-04-04T03:40:57.549Z,11.81
2019-04-04T03:43:22.712Z,11.53
2019-04-04T03:45:48.893Z,12.30
2019-04-04T03:48:17.604Z,12.21
2019-04-04T03:50:43.174Z,12.07
2019-04-04T03:53:09.341Z,12.61
2019-04-04T03:55:35.712Z,12.91
2019-04-04T03:58:02.004Z,13.12
2019-04-04T04:00:30.700Z,13.34
2019-04-04T04:02:57.552Z,12.89
2019-04-04T04:05:27.335Z,12.70
2019-04-04T04:07:53.501Z,12.82
2019-04-04T04:10:19.665Z,12.50
2019-04-04T04:12:46.018Z,13.31
2019-04-04T04:15:12.276Z,13.79
2019-04-04T04:17:38.437Z,13.68
2019-04-04T04:20:05.223Z,13.96
2019-04-04T04:22:31.435Z,14.38
2019-04-04T04:25:02.293Z,14.96
2019-04-04T04:27:25.766Z,15.74
2019-04-04T04:29:51.977Z,15.99
2019-04-04T04:32:21.261Z,17.04
2019-04-04T04:34:46.429Z,17.61
2019-04-04T04:37:12.593Z,17.99
2019-04-04T04:39:41.389Z,18.28
2019-04-04T04:42:06.849Z,19.14
2019-04-04T04:44:33.019Z,19.71
2019-04-04T04:46:59.233Z,19.39
2019-04-04T04:49:25.463Z,20.40
2019-04-04T04:51:51.667Z,20.15
2019-04-04T04:54:17.884Z,20.21
2019-04-04T04:56:44.201Z,20.64
2019-04-04T04:59:11.105Z,20.97
2019-04-04T05:01:40.611Z,20.66
2019-04-04T05:04:06.566Z,20.12
2019-04-04T05:06:35.240Z,20.85
2019-04-04T05:09:00.892Z,22.30
2019-04-04T05:11:27.149Z,23.20
2019-04-04T05:13:53.332Z,23.19
2019-04-04T05:16:19.579Z,23.69
2019-04-04T05:18:47.529Z,23.32
2019-04-04T05:21:24.381Z,23.33
2019-04-04T05:23:41.920Z,23.33
2019-04-04T05:26:09.666Z,23.59
2019-04-04T05:28:36.288Z,22.82
2019-04-04T05:31:02.488Z,22.54
2019-04-04T05:33:31.448Z,22.42
2019-04-04T05:35:56.767Z,21.45
2019-04-04T05:38:22.997Z,21.87
2019-04-04T05:40:49.226Z,22.75
2019-04-04T05:43:15.384Z,23.16
2019-04-04T05:45:44.951Z,23.31
2019-04-04T05:48:09.766Z,21.44
2019-04-04T05:50:36.039Z,21.42
2019-04-04T05:53:04.334Z,21.08
2019-04-04T05:55:30.345Z,22.96
2019-04-04T05:57:56.518Z,22.76
2019-04-04T06:00:22.699Z,23.38
2019-04-04T06:02:48.901Z,22.41
2019-04-04T06:05:15.117Z,21.72
2019-04-04T06:07:41.259Z,21.86
2019-04-04T06:10:07.461Z,21.48
2019-04-04T06:12:33.712Z,21.29
2019-04-04T06:15:00.549Z,21.14
2019-04-04T06:17:27.541Z,22.01
2019-04-04T06:19:53.840Z,23.07
2019-04-04T06:22:21.197Z,22.48
2019-04-04T06:24:48.019Z,22.59
2019-04-04T06:27:14.214Z,20.45
2019-04-04T06:29:40.391Z,20.36
2019-04-04T06:32:06.627Z,21.25
2019-04-04T06:34:32.800Z,22.25
2019-04-04T06:36:59.932Z,22.03
2019-04-04T06:39:26.207Z,21.86
2019-04-04T06:41:52.391Z,21.50
2019-04-04T06:44:18.590Z,22.46
2019-04-04T06:46:44.769Z,21.88
2019-04-04T06:49:10.966Z,22.18
2019-04-04T06:51:37.129Z,21.69
2019-04-04T06:54:03.412Z,20.74
2019-04-04T06:56:31.742Z,22.22
2019-04-04T06:58:57.662Z,22.84
2019-04-04T07:01:25.315Z,22.77
2019-04-04T07:03:52.756Z,22.80
2019-04-04T07:06:19.225Z,20.87
2019-04-04T07:08:46.852Z,19.63
2019-04-04T07:11:21.129Z,21.00
2019-04-04T07:13:42.880Z,21.27
2019-04-04T07:16:09.316Z,20.95
2019-04-04T07:18:35.509Z,21.21
2019-04-04T07:21:03.543Z,20.73
2019-04-04T07:23:29.811Z,22.31
2019-04-04T07:25:55.983Z,21.86
2019-04-04T07:28:22.174Z,22.30
2019-04-04T07:30:48.475Z,22.06
2019-04-04T07:33:14.638Z,22.58
2019-04-04T07:35:40.833Z,22.64
2019-04-04T07:38:07.071Z,22.09
2019-04-04T07:40:36.200Z,23.44
2019-04-04T07:43:01.327Z,23.24
2019-04-04T07:45:29.421Z,21.71
2019-04-04T07:47:55.579Z,21.53
2019-04-04T07:50:21.871Z,22.45
2019-04-04T07:52:48.095Z,22.69
2019-04-04T07:55:14.289Z,22.55
2019-04-04T07:57:43.244Z,22.62
2019-04-04T08:00:12.942Z,22.16
2019-04-04T08:02:39.214Z,22.70
2019-04-04T08:05:07.617Z,21.01
2019-04-04T08:07:33.805Z,21.64
2019-04-04T08:09:59.952Z,22.57
2019-04-04T08:12:27.963Z,23.12
2019-04-04T08:14:54.176Z,23.44
2019-04-04T08:17:20.355Z,22.01
2019-04-04T08:19:58.917Z,22.48
2019-04-04T08:22:17.941Z,23.08
2019-04-04T08:24:44.402Z,23.19
2019-04-04T08:27:10.698Z,24.01
2019-04-04T08:29:36.921Z,24.87
2019-04-04T08:32:03.499Z,24.07
2019-04-04T08:34:29.690Z,25.04
2019-04-04T08:36:55.903Z,24.09
2019-04-04T08:39:22.098Z,25.15
2019-04-04T08:41:48.280Z,25.34
2019-04-04T08:44:14.568Z,25.84
2019-04-04T08:46:40.738Z,24.26
2019-04-04T08:49:06.931Z,25.10
2019-04-04T08:51:33.121Z,24.18
2019-04-04T08:53:59.296Z,23.67
2019-04-04T08:56:25.480Z,24.23
2019-04-04T08:58:51.952Z,24.62
2019-04-04T09:01:18.157Z,24.69
2019-04-04T09:03:44.355Z,25.47
2019-04-04T09:06:10.692Z,24.32
2019-04-04T09:08:36.866Z,24.50
2019-04-04T09:11:03.049Z,23.87
2019-04-04T09:13:29.256Z,23.70
2019-04-04T09:15:55.422Z,23.05
2019-04-04T09:18:21.890Z,24.24
2019-04-04T09:20:48.240Z,24.30
2019-04-04T09:23:14.444Z,23.92
2019-04-04T09:25:40.921Z,24.78
2019-04-04T09:28:07.332Z,26.22
2019-04-04T09:30:33.602Z,25.36
2019-04-04T09:32:59.917Z,25.66
2019-04-04T09:35:26.225Z,26.11
2019-04-04T09:37:52.492Z,25.33
2019-04-04T09:40:18.761Z,26.08
2019-04-04T09:42:45.127Z,25.99
2019-04-04T09:45:11.904Z,27.72
2019-04-04T09:47:38.108Z,25.30
2019-04-04T09:50:05.700Z,26.65
2019-04-04T09:52:31.908Z,26.87
2019-04-04T09:54:58.247Z,26.51
2019-04-04T09:57:24.555Z,25.17
2019-04-04T09:59:50.838Z,27.83
2019-04-04T10:02:17.134Z,27.44
2019-04-04T10:04:43.554Z,26.61
2019-04-04T10:07:09.865Z,27.32
2019-04-04T10:09:36.165Z,27.02
2019-04-04T10:12:02.393Z,27.09
2019-04-04T10:14:28.690Z,26.53
2019-04-04T10:16:54.969Z,27.84
2019-04-04T10:19:21.299Z,28.91
2019-04-04T10:21:47.491Z,28.29
2019-04-04T10:24:13.762Z,28.03
2019-04-04T10:26:39.994Z,29.02
2019-04-04T10:29:06.206Z,29.09
2019-04-04T10:31:32.526Z,31.16
2019-04-04T10:33:58.860Z,32.05
2019-04-04T10:36:25.125Z,31.36
2019-04-04T10:38:51.433Z,30.98
2019-04-04T10:41:23.087Z,31.11
2019-04-04T10:43:51.787Z,31.12
2019-04-04T10:46:18.059Z,29.78
2019-04-04T10:48:44.389Z,30.29
2019-04-04T10:51:10.539Z,30.04
2019-04-04T10:53:58.434Z,29.61
2019-04-04T10:56:26.008Z,29.52
2019-04-04T10:58:52.193Z,29.13
2019-04-04T11:01:21.403Z,29.15
2019-04-04T11:03:59.344Z,29.34
2019-04-04T11:06:25.648Z,29.82
2019-04-04T11:08:51.930Z,29.52
2019-04-04T11:11:18.212Z,30.41
2019-04-04T11:13:44.456Z,31.34
2019-04-04T11:16:10.752Z,30.21
2019-04-04T11:18:55.302Z,28.16
2019-04-04T11:21:17.688Z,28.68
2019-04-04T11:23:44.007Z,28.07
2019-04-04T11:26:10.159Z,29.69
2019-04-04T11:28:36.375Z,30.21
2019-04-04T11:31:02.646Z,29.40
2019-04-04T11:33:29.115Z,28.55
2019-04-04T11:35:55.303Z,28.17
2019-04-04T11:38:21.492Z,28.61
2019-04-04T11:40:47.769Z,28.05
2019-04-04T11:43:17.024Z,27.44
2019-04-04T11:45:43.294Z,26.32
2019-04-04T11:48:09.571Z,26.19
2019-04-04T11:50:35.784Z,26.65
2019-04-04T11:53:02.158Z,25.84
2019-04-04T11:55:28.400Z,26.63
2019-04-04T11:57:54.629Z,26.51
2019-04-04T12:00:28.534Z,28.10
2019-04-04T12:02:54.728Z,28.79
2019-04-04T12:05:20.944Z,27.96
2019-04-04T12:07:47.127Z,27.14
2019-04-04T12:10:13.525Z,28.01
2019-04-04T12:12:39.778Z,29.05
2019-04-04T12:15:07.044Z,28.95
2019-04-04T12:17:33.228Z,29.97
2019-04-04T12:19:59.445Z,29.84
2019-04-04T12:22:25.717Z,28.85
2019-04-04T12:24:51.909Z,29.14
2019-04-04T12:27:18.141Z,28.90
2019-04-04T12:29:44.334Z,29.92
2019-04-04T12:32:13.534Z,30.45
2019-04-04T12:34:39.733Z,29.27
2019-04-04T12:37:05.904Z,29.33
2019-04-04T12:39:32.070Z,29.73
2019-04-04T12:41:58.561Z,29.41
2019-04-04T12:44:24.865Z,28.55
2019-04-04T12:46:51.069Z,29.17
2019-04-04T12:49:17.257Z,28.77
2019-04-04T12:51:43.445Z,28.34
2019-04-04T12:54:09.716Z,29.21
2019-04-04T12:56:35.913Z,28.48
2019-04-04T12:59:02.083Z,29.96
2019-04-04T13:01:28.240Z,29.27
2019-04-04T13:03:54.541Z,28.19
2019-04-04T13:06:20.802Z,28.46
2019-04-04T13:08:46.992Z,28.12
2019-04-04T13:11:13.215Z,27.75
2019-04-04T13:13:39.388Z,27.66
2019-04-04T13:16:05.551Z,28.71
2019-04-04T13:18:31.759Z,27.80
2019-04-04T13:20:57.936Z,27.20
2019-04-04T13:23:24.135Z,28.18
2019-04-04T13:25:50.342Z,27.92
2019-04-04T13:28:16.626Z,28.30
2019-04-04T13:30:42.801Z,27.99
2019-04-04T13:33:09.127Z,28.44
2019-04-04T13:35:37.700Z,29.53
2019-04-04T13:38:03.426Z,28.65
2019-04-04T13:40:29.813Z,29.43
2019-04-04T13:42:55.979Z,28.24
2019-04-04T13:45:24.776Z,28.19
2019-04-04T13:47:50.251Z,28.41
2019-04-04T13:50:19.748Z,28.69
2019-04-04T13:52:44.523Z,28.09
2019-04-04T13:55:10.708Z,28.42
2019-04-04T13:57:39.245Z,29.33
2019-04-04T14:00:07.860Z,28.16
2019-04-04T14:02:34.062Z,27.68
2019-04-04T14:05:09.764Z,27.28
2019-04-04T14:07:28.449Z,27.97
2019-04-04T14:09:54.770Z,29.60
2019-04-04T14:12:21.074Z,29.83
2019-04-04T14:14:47.232Z,28.68
2019-04-04T14:17:13.565Z,29.14
2019-04-04T14:19:39.715Z,28.16
2019-04-04T14:22:05.993Z,27.84
2019-04-04T14:24:32.311Z,27.56
2019-04-04T14:26:58.493Z,28.74
2019-04-04T14:29:27.676Z,28.64
2019-04-04T14:31:52.888Z,26.79
2019-04-04T14:34:19.197Z,27.19
2019-04-04T14:36:45.567Z,28.19
2019-04-04T14:39:11.897Z,27.34
2019-04-04T14:41:38.174Z,27.87
2019-04-04T14:44:04.334Z,27.48
2019-04-04T14:46:30.673Z,26.90
2019-04-04T14:48:56.838Z,28.63
2019-04-04T14:51:23.122Z,27.81
2019-04-04T14:53:49.569Z,27.14
2019-04-04T14:56:15.737Z,25.43
2019-04-04T14:58:42.031Z,26.12
2019-04-04T15:01:08.275Z,27.06
2019-04-04T15:03:34.653Z,26.09
2019-04-04T15:06:00.963Z,26.67
2019-04-04T15:08:29.308Z,25.03
2019-04-04T15:10:55.602Z,25.24
2019-04-04T15:13:21.805Z,26.02
2019-04-04T15:16:09.680Z,25.73
2019-04-04T15:18:36.159Z,24.92
2019-04-04T15:21:02.462Z,25.88
2019-04-04T15:23:28.792Z,25.61
2019-04-04T15:25:54.988Z,26.15
2019-04-04T15:28:21.183Z,26.72
2019-04-04T15:30:47.480Z,25.48
2019-04-04T15:33:13.763Z,25.66
2019-04-04T15:35:39.922Z,25.21
2019-04-04T15:38:06.252Z,25.80
2019-04-04T15:40:32.523Z,25.72
2019-04-04T15:42:58.865Z,25.53
2019-04-04T15:45:25.156Z,25.19
2019-04-04T15:47:51.464Z,25.05
2019-04-04T15:50:17.753Z,25.51
2019-04-04T15:52:43.977Z,25.73
2019-04-04T15:55:10.253Z,26.29
2019-04-04T15:57:36.428Z,25.49
2019-04-04T16:00:05.437Z,25.53
2019-04-04T16:02:31.746Z,25.15
2019-04-04T16:04:57.908Z,24.95
2019-04-04T16:07:26.088Z,25.28
2019-04-04T16:09:52.400Z,24.73
2019-04-04T16:12:18.696Z,25.09
2019-04-04T16:14:45.036Z,25.01
2019-04-04T16:17:11.431Z,25.73
2019-04-04T16:19:37.689Z,25.22
2019-04-04T16:22:03.897Z,25.36
2019-04-04T16:24:30.184Z,24.65
2019-04-04T16:26:56.478Z,24.18
2019-04-04T16:29:22.763Z,22.61
2019-04-04T16:31:49.062Z,23.05
2019-04-04T16:34:15.245Z,22.74
2019-04-04T16:36:41.585Z,22.42
2019-04-04T16:39:08.088Z,22.24
2019-04-04T16:41:34.391Z,22.25
2019-04-04T16:44:00.719Z,21.45
2019-04-04T16:46:26.898Z,21.45
2019-04-04T16:48:53.068Z,21.60
2019-04-04T16:51:19.319Z,21.94
2019-04-04T16:53:45.469Z,21.14
2019-04-04T16:56:11.767Z,21.42
2019-04-04T16:58:37.991Z,21.06
2019-04-04T17:01:04.179Z,21.57
2019-04-04T17:03:30.344Z,21.08
2019-04-04T17:05:56.550Z,21.35
2019-04-04T17:08:22.751Z,21.10
2019-04-04T17:10:48.977Z,20.80
2019-04-04T17:13:15.197Z,21.00
2019-04-04T17:15:41.393Z,19.87
2019-04-04T17:18:07.537Z,20.50
2019-04-04T17:20:33.924Z,20.04
2019-04-04T17:23:00.052Z,20.44
2019-04-04T17:25:26.247Z,20.47
2019-04-04T17:27:52.450Z,20.02
2019-04-04T17:30:18.720Z,20.17
2019-04-04T17:32:47.950Z,20.09
2019-04-04T17:35:13.145Z,19.81
2019-04-04T17:37:39.366Z,20.56
2019-04-04T17:40:07.122Z,19.92
2019-04-04T17:42:33.740Z,19.80
2019-04-04T17:45:01.540Z,19.69
2019-04-04T17:47:28.370Z,20.34
2019-04-04T17:49:54.786Z,19.48
2019-04-04T17:52:20.970Z,20.14
2019-04-04T17:54:52.208Z,19.77
2019-04-04T17:57:18.885Z,19.44
2019-04-04T17:59:45.431Z,19.41
2019-04-04T18:02:14.483Z,19.06
2019-04-04T18:04:48.332Z,20.12
2019-04-04T18:07:08.815Z,19.38
2019-04-04T18:09:35.068Z,20.04
2019-04-04T18:12:01.334Z,19.93
2019-04-04T18:14:27.485Z,20.16
2019-04-04T18:16:53.977Z,20.17
2019-04-04T18:19:20.211Z,19.98
2019-04-04T18:21:46.503Z,20.10
2019-04-04T18:24:12.766Z,20.70
2019-04-04T18:26:39.087Z,20.41
2019-04-04T18:29:05.262Z,20.13
2019-04-04T18:31:31.436Z,20.72
2019-04-04T18:33:57.655Z,20.59
2019-04-04T18:36:24.357Z,20.66
2019-04-04T18:38:50.802Z,20.19
2019-04-04T18:41:17.133Z,20.56
2019-04-04T18:43:43.299Z,20.21
2019-04-04T18:46:09.484Z,20.67
2019-04-04T18:48:36.305Z,20.27
2019-04-04T18:51:02.692Z,20.81
2019-04-04T18:53:28.900Z,20.73
2019-04-04T18:55:55.130Z,20.14
2019-04-04T18:58:21.299Z,19.94
2019-04-04T19:00:47.479Z,20.05
2019-04-04T19:03:13.699Z,19.77
2019-04-04T19:05:39.895Z,19.95
2019-04-04T19:08:06.481Z,20.66
2019-04-04T19:10:32.726Z,19.98
2019-04-04T19:13:05.261Z,19.91
2019-04-04T19:15:27.083Z,20.34
2019-04-04T19:17:53.273Z,20.36
2019-04-04T19:20:19.439Z,19.84
2019-04-04T19:22:46.126Z,19.94
2019-04-04T19:25:13.874Z,19.77
2019-04-04T19:27:40.354Z,19.87
2019-04-04T19:30:07.512Z,20.18
2019-04-04T19:32:33.945Z,19.78
2019-04-04T19:35:00.131Z,20.11
2019-04-04T19:37:26.323Z,20.18
2019-04-04T19:39:54.400Z,19.82
2019-04-04T19:42:20.807Z,19.89
2019-04-04T19:44:53.142Z,20.08
2019-04-04T19:47:15.369Z,19.94
2019-04-04T19:49:41.519Z,19.86
2019-04-04T19:52:07.774Z,19.95
2019-04-04T19:54:34.004Z,20.07
2019-04-04T19:57:00.265Z,19.91
2019-04-04T19:59:26.500Z,20.08
2019-04-04T20:01:52.823Z,20.05
2019-04-04T20:04:18.992Z,20.27
2019-04-04T20:06:45.173Z,20.07
2019-04-04T20:09:11.511Z,20.05
2019-04-04T20:11:37.696Z,19.79
2019-04-04T20:14:04.004Z,19.54
2019-04-04T20:16:30.317Z,19.47
2019-04-04T20:18:56.586Z,18.93
2019-04-04T20:21:25.678Z,18.97
2019-04-04T20:23:53.741Z,19.19
2019-04-04T20:26:20.007Z,18.50
2019-04-04T20:28:47.991Z,18.62
2019-04-04T20:31:14.320Z,18.44
2019-04-04T20:33:40.619Z,17.88
2019-04-04T20:36:06.820Z,17.94
2019-04-04T20:38:33.209Z,18.31
2019-04-04T20:40:59.678Z,18.35
2019-04-04T20:43:25.949Z,18.30
2019-04-04T20:45:52.164Z,18.86
2019-04-04T20:48:18.449Z,18.44
2019-04-04T20:50:44.616Z,18.40
2019-04-04T20:53:10.949Z,18.53
2019-04-04T20:55:37.158Z,18.78
2019-04-04T20:58:03.332Z,18.91
2019-04-04T21:00:29.646Z,18.18
2019-04-04T21:02:55.828Z,18.41
2019-04-04T21:05:22.122Z,18.30
2019-04-04T21:07:48.328Z,18.22
2019-04-04T21:10:14.810Z,17.88
2019-04-04T21:12:41.099Z,18.00
2019-04-04T21:15:07.330Z,18.10
2019-04-04T21:17:33.619Z,18.30
2019-04-04T21:19:59.779Z,18.40
2019-04-04T21:22:27.887Z,18.59
2019-04-04T21:24:54.282Z,18.26
2019-04-04T21:27:20.453Z,17.97
2019-04-04T21:29:46.780Z,18.44
2019-04-04T21:32:12.963Z,17.91
2019-04-04T21:34:39.254Z,18.37
2019-04-04T21:37:05.455Z,18.21
2019-04-04T21:39:31.737Z,18.44
2019-04-04T21:41:58.023Z,18.34
2019-04-04T21:44:24.311Z,18.46
2019-04-04T21:46:50.594Z,18.69
2019-04-04T21:49:16.758Z,18.34
2019-04-04T21:51:43.067Z,17.35
2019-04-04T21:54:09.276Z,17.54
2019-04-04T21:56:35.536Z,17.74
2019-04-04T21:59:01.735Z,16.98
2019-04-04T22:01:27.896Z,17.76
2019-04-04T22:03:54.178Z,17.35
2019-04-04T22:06:20.384Z,17.39
2019-04-04T22:08:47.037Z,17.27
2019-04-04T22:11:13.325Z,17.39
2019-04-04T22:13:39.538Z,17.73
2019-04-04T22:16:05.723Z,17.25
2019-04-04T22:18:31.877Z,17.80
2019-04-04T22:20:58.209Z,17.83
2019-04-04T22:23:24.389Z,18.40
2019-04-04T22:25:50.544Z,18.78
2019-04-04T22:28:16.747Z,18.38
2019-04-04T22:30:43.313Z,17.13
2019-04-04T22:33:09.607Z,17.09
2019-04-04T22:35:35.821Z,17.71
2019-04-04T22:38:02.082Z,18.05
2019-04-04T22:40:28.247Z,17.96
2019-04-04T22:42:54.466Z,17.10
2019-04-04T22:45:20.730Z,17.78
2019-04-04T22:47:46.896Z,17.59
2019-04-04T22:50:13.202Z,17.80
2019-04-04T22:52:39.469Z,16.79
2019-04-04T22:55:06.366Z,17.18
2019-04-04T22:57:32.560Z,17.43
2019-04-04T22:59:58.816Z,16.96
2019-04-04T23:02:25.112Z,17.26
2019-04-04T23:04:51.330Z,17.78
2019-04-04T23:07:17.501Z,17.48
2019-04-04T23:09:43.691Z,17.55
2019-04-04T23:12:10.162Z,17.35
2019-04-04T23:14:47.438Z,17.56
2019-04-04T23:17:04.428Z,17.55
2019-04-04T23:19:30.641Z,17.33
2019-04-04T23:21:56.816Z,17.14
2019-04-04T23:24:22.983Z,17.16
2019-04-04T23:26:49.209Z,17.69
2019-04-04T23:29:15.385Z,17.59
2019-04-04T23:31:41.584Z,16.64
2019-04-04T23:34:07.766Z,16.70
2019-04-04T23:36:35.344Z,16.94
2019-04-04T23:39:01.950Z,17.01
2019-04-04T23:41:28.163Z,16.34
2019-04-04T23:43:54.341Z,16.24
2019-04-04T23:46:20.553Z,16.28
2019-04-04T23:48:46.784Z,16.55
2019-04-04T23:51:12.968Z,17.04
2019-04-04T23:53:39.134Z,16.72
2019-04-04T23:56:05.356Z,16.64
2019-04-04T23:58:31.539Z,15.96
